Time;durP1;ratioP1;P1;durP2;ratioP2;P2;SDS_P1;SDS_P2;PMS_P1;PMS_P2;Temp;Humidity;BMP_temperature;BMP_pressure;BME280_temperature;BME280_humidity;BME280_pressure;Samples;Min_cycle;Max_cycle;Signal;HPM_P1;HPM_P2
2023/08/13 09:06:18;;;;;;;7.72;1.70;;;20.40;99.90;;;;;;5090724;28;20173;-80
2023/08/13 09:08:44;;;;;;;7.32;2.30;;;20.40;99.90;;;;;;5074368;28;20028;-82
2023/08/13 09:11:09;;;;;;;5.40;1.88;;;20.40;99.90;;;;;;5063263;28;20377;-81
2023/08/13 09:13:35;;;;;;;4.10;2.17;;;20.50;99.90;;;;;;5070670;28;20025;-79
2023/08/13 09:16:00;;;;;;;6.28;2.22;;;20.60;99.90;;;;;;5070485;28;20033;-81
2023/08/13 09:18:26;;;;;;;9.25;2.22;;;20.80;99.90;;;;;;5071039;28;20040;-81
2023/08/13 09:20:52;;;;;;;5.32;1.80;;;20.90;99.90;;;;;;5057020;28;20033;-81
2023/08/13 09:23:21;;;;;;;8.13;2.40;;;21.00;99.90;;;;;;5066098;28;20025;-82
2023/08/13 09:25:54;;;;;;;6.60;1.97;;;21.10;99.90;;;;;;5050264;28;20112;-81
2023/08/13 09:28:21;;;;;;;4.82;2.03;;;21.30;99.90;;;;;;5054051;28;20354;-83
2023/08/13 09:30:47;;;;;;;8.63;2.10;;;21.40;99.90;;;;;;5055237;28;20041;-83
2023/08/13 09:33:17;;;;;;;3.95;1.73;;;21.60;99.90;;;;;;5068070;28;20037;-83
2023/08/13 09:35:44;;;;;;;4.15;1.48;;;21.70;99.90;;;;;;5069037;28;20451;-83
2023/08/13 09:38:11;;;;;;;6.72;1.75;;;21.80;99.90;;;;;;5068999;28;20529;-83
2023/08/13 09:40:37;;;;;;;7.38;2.00;;;21.90;99.90;;;;;;5067452;28;20036;-82
2023/08/13 09:43:06;;;;;;;4.70;1.83;;;22.00;99.90;;;;;;5049958;28;20029;-82
2023/08/13 09:45:33;;;;;;;6.28;2.17;;;22.20;99.90;;;;;;5050020;28;20082;-82
2023/08/13 09:48:06;;;;;;;4.38;1.77;;;22.20;99.90;;;;;;5049575;28;20017;-81
2023/08/13 09:50:40;;;;;;;6.30;1.95;;;22.30;99.90;;;;;;5063552;28;20024;-82
2023/08/13 09:53:11;;;;;;;5.93;1.88;;;22.40;99.90;;;;;;5067744;28;20032;-79
2023/08/13 09:55:40;;;;;;;7.15;1.80;;;22.60;99.90;;;;;;5070287;28;20021;-80
2023/08/13 09:58:09;;;;;;;6.82;1.98;;;22.70;99.90;;;;;;5069741;28;20112;-80
2023/08/13 10:00:35;;;;;;;5.93;2.00;;;22.70;99.90;;;;;;5059804;28;20028;-80
2023/08/13 10:03:01;;;;;;;6.10;1.80;;;22.80;99.90;;;;;;5050171;28;20025;-80
2023/08/13 10:05:31;;;;;;;4.38;1.67;;;22.90;99.90;;;;;;5065153;28;20045;-79
2023/08/13 10:07:57;;;;;;;7.15;1.95;;;22.90;99.90;;;;;;5081614;28;20405;-80
2023/08/13 10:10:24;;;;;;;6.25;1.83;;;22.90;99.90;;;;;;5055699;28;20025;-89
2023/08/13 10:12:51;;;;;;;5.68;1.83;;;23.00;99.90;;;;;;5069997;28;20035;-79
2023/08/13 10:15:18;;;;;;;6.72;1.92;;;23.00;99.90;;;;;;5071233;28;20029;-80
2023/08/13 10:17:45;;;;;;;6.53;1.80;;;23.10;99.90;;;;;;5066512;28;20025;-90
2023/08/13 10:20:11;;;;;;;4.82;1.50;;;23.10;99.90;;;;;;5067546;28;20036;-82
2023/08/13 10:22:39;;;;;;;4.75;1.70;;;23.10;99.90;;;;;;5083642;28;20013;-79
2023/08/13 10:25:10;;;;;;;3.67;1.65;;;23.20;99.90;;;;;;5113274;28;20029;-79
2023/08/13 10:27:43;;;;;;;5.00;1.92;;;23.30;99.90;;;;;;5080565;28;20021;-80
2023/08/13 10:30:13;;;;;;;5.38;1.85;;;23.30;99.90;;;;;;5080363;28;20016;-80
2023/08/13 10:32:50;;;;;;;5.43;1.70;;;23.40;99.90;;;;;;5079460;28;20024;-79
2023/08/13 10:35:32;;;;;;;4.43;1.73;;;23.40;99.90;;;;;;5064652;28;20052;-78
2023/08/13 10:38:00;;;;;;;6.18;1.80;;;23.40;99.90;;;;;;5056736;28;20111;-79
2023/08/13 10:40:26;;;;;;;3.30;1.67;;;23.50;99.90;;;;;;5056580;28;20028;-79
2023/08/13 10:42:53;;;;;;;4.53;1.50;;;23.60;99.90;;;;;;5055762;28;20475;-79
2023/08/13 10:45:22;;;;;;;5.28;2.00;;;23.60;99.90;;;;;;5034554;28;20044;-79
2023/08/13 10:47:49;;;;;;;4.70;1.92;;;23.60;99.90;;;;;;5036505;28;20067;-83
2023/08/13 10:50:27;;;;;;;5.32;2.22;;;23.60;99.90;;;;;;5036206;28;20074;-81
2023/08/13 10:52:59;;;;;;;7.30;2.00;;;23.70;99.90;;;;;;5057598;28;20028;-81
2023/08/13 10:55:27;;;;;;;6.10;1.92;;;23.70;99.90;;;;;;5053078;28;20036;-81
2023/08/13 10:57:53;;;;;;;3.58;1.42;;;23.70;99.90;;;;;;5061232;28;20093;-81
2023/08/13 11:00:21;;;;;;;6.82;2.05;;;23.80;99.90;;;;;;5065542;28;20100;-85
2023/08/13 11:02:53;;;;;;;6.13;1.92;;;23.80;99.90;;;;;;5069336;28;20143;-81
2023/08/13 11:05:22;;;;;;;5.40;1.50;;;23.80;99.90;;;;;;5053975;28;20065;-80
2023/08/13 11:07:49;;;;;;;4.95;1.65;;;23.90;99.90;;;;;;5070745;28;20352;-82
2023/08/13 11:10:19;;;;;;;3.53;1.95;;;23.80;99.90;;;;;;5075148;28;20024;-81
2023/08/13 11:12:49;;;;;;;4.80;1.92;;;23.80;99.90;;;;;;5057956;28;20020;-81
2023/08/13 11:15:15;;;;;;;6.40;1.88;;;23.80;99.90;;;;;;5075270;28;20047;-93
2023/08/13 11:17:48;;;;;;;4.93;2.05;;;23.70;99.90;;;;;;5071116;28;20420;-80
2023/08/13 11:20:17;;;;;;;5.45;1.48;;;23.70;99.90;;;;;;5068526;28;20037;-80
2023/08/13 11:22:43;;;;;;;5.68;1.85;;;23.70;99.90;;;;;;5037878;28;20109;-81
2023/08/13 11:25:10;;;;;;;4.25;1.70;;;23.70;99.90;;;;;;5038394;28;20028;-80
2023/08/13 11:27:36;;;;;;;6.28;1.88;;;23.60;99.90;;;;;;5051401;28;20033;-80
2023/08/13 11:30:01;;;;;;;4.65;1.60;;;23.70;99.90;;;;;;5050418;28;20048;-79
2023/08/13 11:32:27;;;;;;;5.25;1.70;;;23.70;99.90;;;;;;5053267;28;20071;-79
2023/08/13 11:34:53;;;;;;;7.05;2.05;;;23.70;99.90;;;;;;5057368;28;20056;-80
2023/08/13 11:37:20;;;;;;;4.47;2.10;;;23.70;99.90;;;;;;5056523;28;20030;-80
2023/08/13 11:39:46;;;;;;;3.65;1.80;;;23.80;99.90;;;;;;5066914;28;20488;-80
2023/08/13 11:42:12;;;;;;;6.30;2.05;;;23.80;99.90;;;;;;5051168;28;20025;-90
2023/08/13 11:44:38;;;;;;;6.00;1.75;;;23.80;99.90;;;;;;5038417;28;20029;-90
2023/08/13 11:47:04;;;;;;;4.88;1.40;;;23.80;99.90;;;;;;5074222;28;20485;-89
2023/08/13 11:49:31;;;;;;;4.57;1.70;;;23.90;99.90;;;;;;5038387;28;20058;-89
2023/08/13 11:51:57;;;;;;;6.07;2.03;;;23.90;99.90;;;;;;5054408;28;20025;-90
2023/08/13 11:54:24;;;;;;;5.55;1.70;;;23.90;99.90;;;;;;5055003;28;20461;-91
2023/08/13 11:56:50;;;;;;;4.38;2.10;;;23.90;99.90;;;;;;5087523;28;20063;-92
2023/08/13 11:59:26;;;;;;;5.82;1.75;;;23.80;99.90;;;;;;5055905;28;20039;-92
2023/08/13 12:01:54;;;;;;;5.97;1.95;;;23.80;99.90;;;;;;5075816;28;20031;-90
2023/08/13 12:04:21;;;;;;;7.22;2.08;;;23.90;99.90;;;;;;5057357;28;20040;-91
2023/08/13 12:06:47;;;;;;;5.50;2.25;;;24.00;99.90;;;;;;5074679;28;20020;-92
2023/08/13 12:09:13;;;;;;;3.38;1.80;;;24.00;99.90;;;;;;5056538;28;20471;-92
2023/08/13 12:11:42;;;;;;;4.53;1.75;;;24.10;99.90;;;;;;5054261;28;20025;-90
2023/08/13 12:14:08;;;;;;;5.82;1.85;;;24.00;99.90;;;;;;5033645;28;20034;-90
2023/08/13 12:16:34;;;;;;;4.88;1.90;;;24.10;99.90;;;;;;5047088;28;20021;-91
2023/08/13 12:19:04;;;;;;;4.40;2.05;;;24.10;99.90;;;;;;5053079;28;20036;-88
2023/08/13 12:21:30;;;;;;;5.03;1.67;;;24.10;99.90;;;;;;5055628;28;20024;-91
2023/08/13 12:23:56;;;;;;;5.30;1.95;;;24.20;99.90;;;;;;5051156;28;20440;-90
2023/08/13 12:26:21;;;;;;;3.83;1.98;;;24.20;99.90;;;;;;5057852;28;20025;-92
2023/08/13 12:28:50;;;;;;;6.43;1.98;;;24.20;99.90;;;;;;5045902;28;20013;-91
2023/08/13 12:31:20;;;;;;;5.35;1.80;;;24.30;99.90;;;;;;5070430;28;20025;-91
2023/08/13 12:33:46;;;;;;;4.30;1.45;;;24.20;99.90;;;;;;5073257;28;20081;-94
2023/08/13 12:36:12;;;;;;;6.32;2.05;;;24.30;99.90;;;;;;5074499;28;20029;-89
2023/08/13 12:38:39;;;;;;;4.50;1.88;;;24.30;99.90;;;;;;5078140;28;20056;-95
2023/08/13 12:41:06;;;;;;;5.80;2.30;;;24.30;99.90;;;;;;5096731;28;20021;-89
2023/08/13 12:43:34;;;;;;;5.28;1.83;;;24.30;99.90;;;;;;5086174;28;20025;-92
2023/08/13 12:46:00;;;;;;;4.60;1.95;;;24.30;99.90;;;;;;5067426;28;20060;-92
2023/08/13 12:48:25;;;;;;;4.85;1.80;;;24.20;99.90;;;;;;5054810;28;20024;-92
2023/08/13 12:50:51;;;;;;;3.53;1.73;;;24.20;99.90;;;;;;5046613;28;20029;-90
2023/08/13 12:53:17;;;;;;;4.25;1.77;;;24.30;99.90;;;;;;5056660;28;20033;-93
2023/08/13 12:55:42;;;;;;;4.15;1.90;;;24.30;99.90;;;;;;5033544;28;20044;-92
2023/08/13 12:58:08;;;;;;;4.68;1.75;;;24.30;99.90;;;;;;5037563;28;20029;-92
2023/08/13 13:00:34;;;;;;;5.68;1.92;;;24.40;99.90;;;;;;5049936;28;20025;-94
2023/08/13 13:02:59;;;;;;;7.68;2.30;;;24.40;99.90;;;;;;5054411;28;20028;-92
2023/08/13 13:05:25;;;;;;;3.17;1.70;;;24.40;99.90;;;;;;5036720;28;20052;-92
2023/08/13 13:07:55;;;;;;;6.10;1.88;;;24.30;99.90;;;;;;5060480;28;20080;-90
2023/08/13 13:10:21;;;;;;;4.53;2.00;;;24.30;99.90;;;;;;5040469;28;20021;-91
2023/08/13 13:12:46;;;;;;;4.68;1.80;;;24.40;99.80;;;;;;5037241;28;20028;-92
2023/08/13 13:15:12;;;;;;;4.18;1.92;;;24.40;99.80;;;;;;5037045;28;20445;-91
2023/08/13 13:17:38;;;;;;;5.60;1.73;;;24.40;99.90;;;;;;5054678;28;20025;-92
2023/08/13 13:20:10;;;;;;;4.93;1.80;;;24.40;99.90;;;;;;5048872;28;20450;-92
2023/08/13 13:22:36;;;;;;;3.50;1.77;;;24.50;99.90;;;;;;5067934;28;20018;-92
2023/08/13 13:25:02;;;;;;;3.83;1.70;;;24.50;99.90;;;;;;5033271;28;20025;-91
2023/08/13 13:27:28;;;;;;;4.57;1.67;;;24.50;99.90;;;;;;5052978;28;20275;-92
2023/08/13 13:29:54;;;;;;;5.10;1.73;;;24.60;99.90;;;;;;5051084;28;20032;-92
2023/08/13 13:32:19;;;;;;;5.53;1.90;;;24.70;99.90;;;;;;5067317;28;20025;-90
2023/08/13 13:34:45;;;;;;;6.78;1.60;;;24.70;99.80;;;;;;5052945;28;20055;-90
2023/08/13 13:37:11;;;;;;;7.63;2.05;;;24.70;99.80;;;;;;5086389;28;20334;-89
2023/08/13 13:39:37;;;;;;;6.80;2.10;;;24.70;99.90;;;;;;5069836;28;20028;-91
2023/08/13 13:42:02;;;;;;;3.47;1.85;;;24.70;99.70;;;;;;5048827;28;20124;-92
2023/08/13 13:44:28;;;;;;;4.75;1.90;;;24.80;99.60;;;;;;5066192;28;20100;-91
2023/08/13 13:46:54;;;;;;;4.32;1.80;;;24.80;99.50;;;;;;5066720;28;20120;-92
2023/08/13 13:49:19;;;;;;;5.55;2.20;;;24.80;99.60;;;;;;5049903;28;20052;-92
2023/08/13 13:51:45;;;;;;;3.67;1.75;;;24.80;99.70;;;;;;5062302;28;20531;-93
2023/08/13 13:54:11;;;;;;;5.55;2.13;;;24.80;99.80;;;;;;5056964;28;20056;-93
2023/08/13 13:56:36;;;;;;;4.60;1.60;;;24.80;99.80;;;;;;5057592;28;20129;-84
2023/08/13 13:59:03;;;;;;;5.45;1.90;;;24.90;99.90;;;;;;5082504;28;20094;-84
2023/08/13 14:01:28;;;;;;;3.20;1.80;;;24.90;99.90;;;;;;5039124;28;20043;-85
2023/08/13 14:03:54;;;;;;;5.57;2.10;;;24.90;99.90;;;;;;5038915;28;20059;-85
2023/08/13 14:06:20;;;;;;;5.38;2.17;;;24.90;99.80;;;;;;5038021;28;20033;-84
2023/08/13 14:08:45;;;;;;;5.15;1.90;;;24.90;99.70;;;;;;5069632;28;20048;-84
2023/08/13 14:11:11;;;;;;;5.75;1.95;;;24.80;99.50;;;;;;5035356;28;20450;-85
2023/08/13 14:13:37;;;;;;;4.63;1.67;;;24.80;99.50;;;;;;5059423;28;20026;-85
2023/08/13 14:16:03;;;;;;;6.53;1.85;;;24.70;99.40;;;;;;5054126;28;20404;-85
2023/08/13 14:18:29;;;;;;;4.15;1.67;;;24.70;99.20;;;;;;5055783;28;20039;-85
2023/08/13 14:20:55;;;;;;;4.82;1.40;;;24.70;99.10;;;;;;5057351;28;20351;-85
2023/08/13 14:23:21;;;;;;;3.95;1.83;;;24.70;99.10;;;;;;5051080;28;20028;-84
2023/08/13 14:25:47;;;;;;;4.55;1.88;;;24.70;99.10;;;;;;5075312;28;20464;-84
2023/08/13 14:28:12;;;;;;;3.88;1.70;;;24.80;99.10;;;;;;5058909;28;20487;-84
2023/08/13 14:30:38;;;;;;;4.78;1.75;;;24.80;99.00;;;;;;5056738;28;20043;-84
2023/08/13 14:33:04;;;;;;;4.47;2.08;;;24.80;99.00;;;;;;5056460;28;20017;-84
2023/08/13 14:35:29;;;;;;;5.90;1.90;;;24.90;99.10;;;;;;5035594;28;20026;-84
2023/08/13 14:37:57;;;;;;;4.00;1.60;;;24.90;99.00;;;;;;5037101;28;20347;-85
2023/08/13 14:40:23;;;;;;;3.78;1.90;;;24.90;98.90;;;;;;5049332;28;20017;-84
2023/08/13 14:42:48;;;;;;;3.85;1.63;;;24.90;98.70;;;;;;5059272;28;20032;-84
2023/08/13 14:45:14;;;;;;;5.03;1.63;;;24.90;98.40;;;;;;5072661;28;20084;-85
2023/08/13 14:47:40;;;;;;;4.88;1.50;;;24.90;98.20;;;;;;5079176;28;20041;-85
2023/08/13 14:50:06;;;;;;;4.28;1.80;;;24.90;98.20;;;;;;5096908;28;20159;-85
2023/08/13 14:52:33;;;;;;;3.35;1.73;;;24.90;98.10;;;;;;5076492;28;20029;-85
2023/08/13 14:54:59;;;;;;;4.55;1.52;;;24.90;98.20;;;;;;5056061;28;20025;-85
2023/08/13 14:57:25;;;;;;;4.05;2.15;;;24.90;98.30;;;;;;5055797;28;20036;-85
2023/08/13 14:59:53;;;;;;;3.80;1.60;;;25.00;98.40;;;;;;5046673;28;20522;-85
2023/08/13 15:02:19;;;;;;;3.72;1.85;;;25.00;98.10;;;;;;5071517;28;20029;-85
2023/08/13 15:04:45;;;;;;;3.83;1.80;;;25.00;98.10;;;;;;5050711;28;20042;-85
2023/08/13 15:07:10;;;;;;;3.78;1.65;;;25.00;98.00;;;;;;5068956;28;20048;-85
2023/08/13 15:09:36;;;;;;;4.05;2.00;;;25.00;97.80;;;;;;5074876;28;20103;-85
2023/08/13 15:12:02;;;;;;;2.80;1.67;;;25.00;97.70;;;;;;5041718;28;20028;-84
2023/08/13 15:14:28;;;;;;;4.78;1.95;;;24.90;97.70;;;;;;5067212;28;20350;-85
2023/08/13 15:16:53;;;;;;;4.03;1.60;;;24.90;97.80;;;;;;5057280;28;20037;-85
2023/08/13 15:19:20;;;;;;;6.90;2.03;;;24.90;97.70;;;;;;5067598;28;20029;-85
2023/08/13 15:21:45;;;;;;;4.75;2.05;;;24.90;97.70;;;;;;5073923;28;20028;-85
2023/08/13 15:24:11;;;;;;;5.22;1.88;;;24.80;97.70;;;;;;5070938;28;20017;-85
2023/08/13 15:26:36;;;;;;;4.53;1.77;;;24.80;97.60;;;;;;5087114;28;20016;-84
2023/08/13 15:29:02;;;;;;;4.28;1.60;;;24.80;97.60;;;;;;5074440;28;20024;-85
2023/08/13 15:31:28;;;;;;;3.15;1.45;;;24.80;97.50;;;;;;5066248;28;20056;-85
2023/08/13 15:33:54;;;;;;;5.07;1.83;;;24.70;97.60;;;;;;5066994;28;20025;-85
2023/08/13 15:36:19;;;;;;;2.75;1.60;;;24.70;97.80;;;;;;5057399;28;20035;-85
2023/08/13 15:38:45;;;;;;;3.97;1.83;;;24.70;97.90;;;;;;5056951;28;20029;-85
2023/08/13 15:41:10;;;;;;;4.30;1.90;;;24.70;98.00;;;;;;5069191;28;20037;-85
2023/08/13 15:43:37;;;;;;;4.43;1.80;;;24.70;98.00;;;;;;5032124;28;20022;-85
2023/08/13 15:46:02;;;;;;;4.78;2.00;;;24.60;98.00;;;;;;5071970;28;20504;-85
2023/08/13 15:48:28;;;;;;;4.18;1.52;;;24.60;98.00;;;;;;5079919;28;20048;-85
2023/08/13 15:50:54;;;;;;;4.32;1.70;;;24.60;98.10;;;;;;5051753;28;20025;-85
2023/08/13 15:53:19;;;;;;;5.25;2.33;;;24.60;98.20;;;;;;5045970;28;20029;-85
2023/08/13 15:55:45;;;;;;;5.65;2.38;;;24.70;98.30;;;;;;5052502;28;20025;-85
2023/08/13 15:58:12;;;;;;;4.65;2.20;;;24.60;98.20;;;;;;5089328;28;20033;-85
2023/08/13 16:00:38;;;;;;;4.07;1.92;;;24.60;98.10;;;;;;5062495;28;20024;-86
2023/08/13 16:03:05;;;;;;;7.75;2.30;;;24.60;98.30;;;;;;5052651;28;20021;-85
2023/08/13 16:05:30;;;;;;;5.40;2.33;;;24.60;98.50;;;;;;5050237;28;20046;-84
2023/08/13 16:07:56;;;;;;;6.43;2.30;;;24.60;98.70;;;;;;5079697;28;20410;-84
2023/08/13 16:10:22;;;;;;;6.88;2.30;;;24.70;98.80;;;;;;5053371;28;20032;-84
2023/08/13 16:12:48;;;;;;;6.15;2.42;;;24.60;98.70;;;;;;5051121;28;20896;-84
2023/08/13 16:15:14;;;;;;;6.43;2.20;;;24.60;98.70;;;;;;5055549;28;20037;-85
2023/08/13 16:17:44;;;;;;;5.60;1.90;;;24.60;98.70;;;;;;5045947;28;20072;-85
2023/08/13 16:20:12;;;;;;;5.10;2.42;;;24.50;98.70;;;;;;5040199;28;20025;-87
2023/08/13 16:22:38;;;;;;;7.28;2.50;;;24.50;98.70;;;;;;5041169;28;20055;-88
2023/08/13 16:25:04;;;;;;;5.28;2.63;;;24.50;98.70;;;;;;5081176;28;20105;-86
2023/08/13 16:27:30;;;;;;;8.82;3.65;;;24.40;98.70;;;;;;5058061;28;20067;-85
2023/08/13 16:29:56;;;;;;;8.77;5.40;;;24.30;98.70;;;;;;5032355;28;20036;-88
2023/08/13 16:32:22;;;;;;;19.92;14.80;;;24.30;98.80;;;;;;5068964;28;20032;-89
2023/08/13 16:34:47;;;;;;;18.00;14.60;;;24.20;99.20;;;;;;5015897;28;20021;-88
2023/08/13 16:37:13;;;;;;;15.30;11.55;;;24.20;99.00;;;;;;5038847;28;20157;-89
2023/08/13 16:39:39;;;;;;;15.70;13.60;;;24.10;99.20;;;;;;5053051;28;20049;-88
2023/08/13 16:42:05;;;;;;;11.95;8.98;;;24.10;99.20;;;;;;5054321;28;20032;-87
2023/08/13 16:44:30;;;;;;;11.15;6.60;;;24.00;99.10;;;;;;5033433;28;20036;-88
2023/08/13 16:46:56;;;;;;;7.55;4.32;;;23.90;99.10;;;;;;5035030;28;20041;-89
2023/08/13 16:49:24;;;;;;;6.65;3.28;;;23.90;99.20;;;;;;5073919;28;20017;-89
2023/08/13 16:51:49;;;;;;;18.95;15.25;;;23.80;99.20;;;;;;5088362;28;20017;-88
2023/08/13 16:54:15;;;;;;;11.88;8.25;;;23.80;99.30;;;;;;5083298;28;20089;-87
2023/08/13 16:56:41;;;;;;;12.20;8.05;;;23.80;99.30;;;;;;5093107;28;20089;-88
2023/08/13 16:59:06;;;;;;;21.83;16.48;;;23.80;99.30;;;;;;5073535;28;20088;-87
2023/08/13 17:01:32;;;;;;;23.38;18.20;;;23.70;99.40;;;;;;5061911;28;20036;-87
2023/08/13 17:03:58;;;;;;;23.50;19.30;;;23.70;99.50;;;;;;5065903;28;20025;-87
2023/08/13 17:06:24;;;;;;;13.45;11.02;;;23.70;99.60;;;;;;5053320;28;20126;-88
2023/08/13 17:08:49;;;;;;;12.15;9.57;;;23.70;99.70;;;;;;5062463;28;20025;-89
2023/08/13 17:11:15;;;;;;;11.15;8.27;;;23.70;99.60;;;;;;5045623;28;20048;-87
2023/08/13 17:13:41;;;;;;;7.93;6.30;;;23.80;99.70;;;;;;5052858;28;20037;-89
2023/08/13 17:16:08;;;;;;;7.53;4.20;;;23.70;99.70;;;;;;5067232;28;20040;-93
2023/08/13 17:18:34;;;;;;;5.38;3.28;;;23.70;99.70;;;;;;5051862;28;20037;-89
2023/08/13 17:21:00;;;;;;;4.40;2.80;;;23.70;99.70;;;;;;5071699;28;20135;-91
2023/08/13 17:23:26;;;;;;;4.18;2.08;;;23.70;99.70;;;;;;5037075;28;20037;-85
2023/08/13 17:25:51;;;;;;;4.30;2.00;;;23.70;99.90;;;;;;5069436;28;20025;-85
2023/08/13 17:28:17;;;;;;;4.15;1.80;;;23.60;99.60;;;;;;5072215;28;20025;-84
2023/08/13 17:30:44;;;;;;;3.63;2.20;;;23.50;99.60;;;;;;5072072;28;20081;-85
2023/08/13 17:33:10;;;;;;;3.45;2.00;;;23.50;99.80;;;;;;5076243;28;20021;-84
2023/08/13 17:35:36;;;;;;;3.42;1.77;;;23.50;99.80;;;;;;5073210;28;20033;-84
2023/08/13 17:38:02;;;;;;;4.22;2.58;;;23.50;99.90;;;;;;5052062;28;20483;-84
2023/08/13 17:40:28;;;;;;;6.15;2.28;;;23.40;99.90;;;;;;5070407;28;20027;-84
2023/08/13 17:42:53;;;;;;;5.13;2.53;;;23.50;99.90;;;;;;5051801;28;20033;-84
2023/08/13 17:45:19;;;;;;;6.65;2.05;;;23.40;99.90;;;;;;5049942;28;20423;-84
2023/08/13 17:47:44;;;;;;;4.80;2.40;;;23.40;99.90;;;;;;5039004;28;20056;-84
2023/08/13 17:50:10;;;;;;;3.72;2.00;;;23.40;99.90;;;;;;5071938;28;20159;-84
2023/08/13 17:52:36;;;;;;;3.15;1.75;;;23.30;99.90;;;;;;5041335;28;20025;-85
2023/08/13 17:55:02;;;;;;;5.13;2.70;;;23.30;99.90;;;;;;5067917;28;20471;-85
2023/08/13 17:57:28;;;;;;;3.55;2.28;;;23.40;99.90;;;;;;5063600;28;20032;-84
2023/08/13 17:59:54;;;;;;;4.20;2.30;;;23.40;99.90;;;;;;5051519;28;20048;-85
2023/08/13 18:02:19;;;;;;;4.55;2.65;;;23.40;99.90;;;;;;5051493;28;20095;-85
2023/08/13 18:04:46;;;;;;;5.53;3.25;;;23.40;99.90;;;;;;5074601;28;20053;-85
2023/08/13 18:07:12;;;;;;;10.15;7.53;;;23.40;99.90;;;;;;5070017;28;20079;-86
2023/08/13 18:09:38;;;;;;;14.02;9.50;;;23.30;99.90;;;;;;5059964;28;20041;-85
2023/08/13 18:12:04;;;;;;;15.93;10.63;;;23.40;99.90;;;;;;5039760;28;20040;-84
2023/08/13 18:14:29;;;;;;;11.82;7.50;;;23.30;99.90;;;;;;5055688;28;20115;-84
2023/08/13 18:16:56;;;;;;;9.32;6.03;;;23.30;99.90;;;;;;5041369;28;20025;-84
2023/08/13 18:19:22;;;;;;;11.55;6.72;;;23.20;99.90;;;;;;5057865;28;20028;-84
2023/08/13 18:21:47;;;;;;;7.57;4.60;;;23.20;99.90;;;;;;5053833;28;20350;-84
2023/08/13 18:24:13;;;;;;;10.30;5.65;;;23.20;99.90;;;;;;5049430;28;20349;-85
2023/08/13 18:26:39;;;;;;;8.63;5.80;;;23.20;99.90;;;;;;5054649;28;20029;-85
2023/08/13 18:29:04;;;;;;;7.18;4.72;;;23.10;99.90;;;;;;5052453;28;20056;-85
2023/08/13 18:31:30;;;;;;;6.03;3.50;;;23.10;99.90;;;;;;5058230;28;20073;-85
2023/08/13 18:33:56;;;;;;;3.45;2.35;;;23.10;99.90;;;;;;5040719;28;20090;-85
2023/08/13 18:36:22;;;;;;;4.30;1.65;;;23.00;99.90;;;;;;5066890;28;20409;-84
2023/08/13 18:38:48;;;;;;;3.25;2.03;;;23.00;99.90;;;;;;5052025;28;20486;-84
2023/08/13 18:41:14;;;;;;;4.65;2.10;;;22.90;99.90;;;;;;5034203;28;20064;-85
2023/08/13 18:43:39;;;;;;;3.63;1.60;;;22.90;99.90;;;;;;5053119;28;20025;-85
2023/08/13 18:46:06;;;;;;;3.17;1.67;;;22.80;99.90;;;;;;5025000;28;20377;-85
2023/08/13 18:48:31;;;;;;;3.95;1.95;;;22.70;99.90;;;;;;5038618;28;20486;-85
2023/08/13 18:50:58;;;;;;;4.22;2.00;;;22.70;99.90;;;;;;5026709;28;20116;-85
2023/08/13 18:53:25;;;;;;;5.47;1.80;;;22.60;99.90;;;;;;5055192;28;20376;-85
2023/08/13 18:55:50;;;;;;;5.35;1.90;;;22.60;99.90;;;;;;5080050;28;20021;-84
2023/08/13 18:58:17;;;;;;;4.97;1.65;;;22.50;99.90;;;;;;5076010;28;20033;-85
2023/08/13 19:00:44;;;;;;;3.92;1.58;;;22.40;99.90;;;;;;5079067;28;20026;-84
2023/08/13 19:03:10;;;;;;;3.83;2.20;;;22.40;99.90;;;;;;5075490;28;20029;-85
2023/08/13 19:05:36;;;;;;;3.45;1.45;;;22.30;99.90;;;;;;5076310;28;20049;-85
2023/08/13 19:08:03;;;;;;;3.58;1.73;;;22.30;99.90;;;;;;5100206;28;20024;-81
2023/08/13 19:10:29;;;;;;;5.40;1.80;;;22.30;99.90;;;;;;5058724;28;20021;-85
2023/08/13 19:12:55;;;;;;;4.10;1.95;;;22.20;99.90;;;;;;5056940;28;20071;-86
2023/08/13 19:15:21;;;;;;;3.13;1.80;;;22.10;99.90;;;;;;5072262;28;20456;-86
2023/08/13 19:17:48;;;;;;;3.33;1.55;;;22.10;99.90;;;;;;5054198;28;20022;-85
2023/08/13 19:20:14;;;;;;;2.83;1.73;;;22.00;99.90;;;;;;5049589;28;20036;-85
2023/08/13 19:22:40;;;;;;;3.25;1.80;;;21.90;99.90;;;;;;5055260;28;20040;-84
2023/08/13 19:25:06;;;;;;;3.58;1.80;;;21.90;99.90;;;;;;5055458;28;20387;-84
2023/08/13 19:27:32;;;;;;;3.40;1.70;;;21.90;99.90;;;;;;5063937;28;20031;-84
2023/08/13 19:29:57;;;;;;;4.40;2.08;;;21.80;99.90;;;;;;5049927;28;20056;-84
2023/08/13 19:32:23;;;;;;;3.47;1.60;;;21.80;99.90;;;;;;5060614;28;20033;-84
2023/08/13 19:34:49;;;;;;;5.30;1.98;;;21.80;99.90;;;;;;5074944;28;20037;-86
2023/08/13 19:37:14;;;;;;;3.30;1.60;;;21.80;99.90;;;;;;5049398;28;20029;-86
2023/08/13 19:39:40;;;;;;;4.60;1.70;;;21.70;99.90;;;;;;5094027;28;20431;-86
2023/08/13 19:42:06;;;;;;;2.97;1.67;;;21.70;99.90;;;;;;5060996;28;20029;-86
2023/08/13 19:44:32;;;;;;;2.72;1.50;;;21.60;99.90;;;;;;5083460;28;20512;-86
2023/08/13 19:46:57;;;;;;;3.03;1.50;;;21.60;99.90;;;;;;5053052;28;20027;-86
2023/08/13 19:49:23;;;;;;;3.88;1.50;;;21.50;99.90;;;;;;5033558;28;20049;-85
2023/08/13 19:51:49;;;;;;;2.78;1.45;;;21.50;99.90;;;;;;5018197;28;20056;-85
2023/08/13 19:54:14;;;;;;;4.25;1.70;;;21.40;99.90;;;;;;5038679;28;20025;-85
2023/08/13 19:56:40;;;;;;;3.92;1.90;;;21.40;99.90;;;;;;5036814;28;20029;-86
2023/08/13 19:59:06;;;;;;;4.78;1.70;;;21.40;99.90;;;;;;5051764;28;20025;-85
2023/08/13 20:01:32;;;;;;;3.33;1.65;;;21.30;99.90;;;;;;5058451;28;20090;-86
2023/08/13 20:03:57;;;;;;;3.25;1.60;;;21.30;99.90;;;;;;5045243;28;20045;-86
2023/08/13 20:06:23;;;;;;;3.97;1.83;;;21.30;99.90;;;;;;5021659;28;20476;-86
2023/08/13 20:08:49;;;;;;;3.30;1.55;;;21.20;99.90;;;;;;5066739;28;20033;-86
2023/08/13 20:11:15;;;;;;;3.92;1.67;;;21.20;99.90;;;;;;5041988;28;20022;-86
2023/08/13 20:13:41;;;;;;;4.38;1.73;;;21.20;99.90;;;;;;5050341;28;20079;-85
2023/08/13 20:16:06;;;;;;;3.42;1.63;;;21.10;99.90;;;;;;5048877;28;20029;-86
2023/08/13 20:18:32;;;;;;;3.38;1.55;;;21.10;99.90;;;;;;5036041;28;20041;-86
2023/08/13 20:20:59;;;;;;;3.58;1.63;;;21.00;99.90;;;;;;5048682;28;20096;-86
2023/08/13 20:23:25;;;;;;;4.05;1.98;;;21.00;99.90;;;;;;5053964;28;20021;-86
2023/08/13 20:25:53;;;;;;;3.58;1.70;;;20.90;99.90;;;;;;5053385;28;20035;-86
2023/08/13 20:28:19;;;;;;;3.03;1.85;;;20.90;99.90;;;;;;5069366;28;20037;-85
2023/08/13 20:30:45;;;;;;;3.53;1.90;;;20.90;99.90;;;;;;5051730;28;20025;-86
2023/08/13 20:33:11;;;;;;;4.30;1.98;;;20.80;99.90;;;;;;5036149;28;20034;-86
2023/08/13 20:35:37;;;;;;;9.60;2.22;;;20.80;99.90;;;;;;5067956;28;20025;-86
2023/08/13 20:38:03;;;;;;;3.92;2.33;;;20.80;99.90;;;;;;5052287;28;20059;-86
2023/08/13 20:40:28;;;;;;;5.30;1.70;;;20.70;99.90;;;;;;5048940;28;20531;-85
2023/08/13 20:42:54;;;;;;;4.43;1.80;;;20.70;99.90;;;;;;5068785;28;20112;-86
2023/08/13 20:45:20;;;;;;;4.00;1.70;;;20.70;99.90;;;;;;5068302;28;20384;-86
2023/08/13 20:47:45;;;;;;;6.25;2.15;;;20.60;99.90;;;;;;5032983;28;20022;-86
2023/08/13 20:50:11;;;;;;;8.57;2.33;;;20.60;99.90;;;;;;5062609;28;20032;-86
2023/08/13 20:52:38;;;;;;;6.10;2.05;;;20.50;99.90;;;;;;5047033;28;20021;-86
2023/08/13 20:55:05;;;;;;;6.35;2.42;;;20.50;99.90;;;;;;5059563;28;20140;-86
2023/08/13 20:57:31;;;;;;;5.03;2.20;;;20.50;99.90;;;;;;5079907;28;20039;-86
2023/08/13 20:59:57;;;;;;;3.80;2.08;;;20.50;99.90;;;;;;5109449;28;20037;-85
2023/08/13 21:02:23;;;;;;;5.72;2.25;;;20.40;99.90;;;;;;5076524;28;20037;-86
2023/08/13 21:04:49;;;;;;;4.10;2.00;;;20.40;99.90;;;;;;5066578;28;20034;-84
2023/08/13 21:07:18;;;;;;;4.72;2.30;;;20.40;99.90;;;;;;5056492;28;20020;-86
2023/08/13 21:09:43;;;;;;;5.78;2.00;;;20.30;99.90;;;;;;5059864;28;20025;-85
2023/08/13 21:12:09;;;;;;;5.88;2.45;;;20.30;99.90;;;;;;5052498;28;20029;-86
2023/08/13 21:14:35;;;;;;;5.97;2.58;;;20.20;99.90;;;;;;5053709;28;20410;-86
2023/08/13 21:17:00;;;;;;;4.95;2.60;;;20.30;99.90;;;;;;5053292;28;20036;-85
2023/08/13 21:19:26;;;;;;;5.85;3.00;;;20.20;99.90;;;;;;5054493;28;20025;-85
2023/08/13 21:21:52;;;;;;;5.75;3.28;;;20.20;99.90;;;;;;5036728;28;20369;-86
2023/08/13 21:24:17;;;;;;;3.83;2.85;;;20.10;99.90;;;;;;5075476;28;20033;-85
2023/08/13 21:26:43;;;;;;;5.55;2.97;;;20.10;99.90;;;;;;5050528;28;20020;-85
2023/08/13 21:29:08;;;;;;;6.07;2.95;;;20.10;99.90;;;;;;5051652;28;20033;-85
2023/08/13 21:31:34;;;;;;;4.90;2.58;;;20.10;99.90;;;;;;5051824;28;20031;-85
2023/08/13 21:34:00;;;;;;;3.80;2.60;;;20.00;99.90;;;;;;5073562;28;20380;-85
2023/08/13 21:36:25;;;;;;;4.07;2.33;;;20.00;99.90;;;;;;5083519;28;20068;-85
2023/08/13 21:38:52;;;;;;;5.72;2.25;;;20.00;99.90;;;;;;5090362;28;20037;-85
2023/08/13 21:41:17;;;;;;;4.28;2.40;;;20.00;99.90;;;;;;5083460;28;20459;-85
2023/08/13 21:43:43;;;;;;;3.33;2.10;;;19.90;99.90;;;;;;5071358;28;20048;-85
2023/08/13 21:46:09;;;;;;;4.40;2.35;;;19.90;99.90;;;;;;5072104;28;20036;-85